aviador You're here:

KGEZ Decoded Metar

SHELBYVILLE in IN, USA
Report Time2018-07-19 18:53:00
UTC Time2018-07-19 19:14:17
Flight Rules vfr VFR
Wind190° at 08 kt
W.Decomp.*RWY 19: 8.0 kt HW 0.6 kt RCW
RWY 27: 1.9 kt HW 7.8 kt LCW
W.Rank190° ranks 2
Current wind is below 190° avg. (8.8)
Visibility9999 m
Phenomena:N/A
Clouds:Scattered 055 Hf
Expected CloudBase > 5,200 ft AGL from Temp-Dew spread
CeilingNone
Temp29°C (ISA +16)
Dew Point16°C (45% RH)
Heat Index29.1°C
AAT28.0°C
QNH1016 hPa
Density Alt2,736 ft
Elevation804 ft
Report Wrong Elevation
Raw Report
KGEZ 191853Z AUTO 19008KT 10SM SCT055 29/16 A2999 RMK AO2 SLP151
T02890156=

Extra information for KGEZ:More info

Metar Taf Metar & Taf Last 4 Metars F.Rules Stats Wind Profile Meteogram Temp Stats Airport Information Weather charts Add Link Nearby VenuesMetar ALERT Operation Metar Decoded Social comments

AIRNAV info for KGEZ